Paden, Oklahoma
Current Conditions -  °F | °C
As of 8:35 AM on Thursday 23 Oct 2014 (Local Time) from KCQB Reporting Station
Overcast Overcast  
Wind Chill: 61°   Ceiling: 5500
Heat Index: 61°   Visibility: 10mi
Dew Point: 61°   Wind: 6mph
Humidity: 100%   Direction: 180°S
Pressure: 30.14"   Gusts: NA
Location:  35.51°N, 96.57°W
Report Text: KCQB 231335Z AUTO 18005KT 10SM OVC055 16/16 A3014 RMK AO2
Loading
Personal Weather Stations






























Interactive Weather Map
Tropical Storm Tracking
New forecast layout! Learn more

10-Day Weather Forecast

Advertisements
Track Severe Weather on mobile